createdAt,value
2022-11-22T00:00:25.329Z,3.67
2022-11-22T00:02:52.227Z,3.75
2022-11-22T00:05:19.192Z,3.90
2022-11-22T00:07:46.312Z,4.00
2022-11-22T00:10:14.116Z,3.70
2022-11-22T00:12:41.734Z,4.38
2022-11-22T00:15:09.742Z,3.75
2022-11-22T00:17:36.570Z,4.38
2022-11-22T00:20:04.672Z,4.07
2022-11-22T00:22:32.539Z,4.90
2022-11-22T00:24:59.304Z,3.95
2022-11-22T00:27:26.311Z,3.92
2022-11-22T00:29:53.204Z,4.10
2022-11-22T00:32:20.031Z,4.78
2022-11-22T00:34:46.737Z,4.47
2022-11-22T00:37:13.545Z,4.50
2022-11-22T00:39:40.291Z,4.65
2022-11-22T00:42:07.010Z,4.72
2022-11-22T00:44:33.825Z,4.80
2022-11-22T00:47:00.575Z,5.05
2022-11-22T00:49:27.858Z,5.70
2022-11-22T00:51:54.763Z,5.53
2022-11-22T00:54:21.521Z,6.57
2022-11-22T00:56:48.205Z,6.85
2022-11-22T00:59:14.962Z,5.93
2022-11-22T01:01:41.876Z,6.18
2022-11-22T01:04:08.715Z,5.43
2022-11-22T01:06:35.770Z,5.65
2022-11-22T01:09:02.659Z,6.43
2022-11-22T01:11:29.491Z,6.00
2022-11-22T01:13:56.340Z,6.53
2022-11-22T01:16:23.081Z,5.72
2022-11-22T01:18:49.813Z,6.25
2022-11-22T01:21:16.608Z,5.88
2022-11-22T01:23:43.340Z,5.72
2022-11-22T01:26:10.173Z,6.35
2022-11-22T01:28:37.137Z,6.30
2022-11-22T01:31:04.954Z,6.25
2022-11-22T01:33:31.773Z,6.22
2022-11-22T01:35:58.648Z,5.97
2022-11-22T01:38:25.775Z,6.00
2022-11-22T01:40:53.453Z,6.40
2022-11-22T01:43:25.294Z,5.90
2022-11-22T01:45:57.123Z,5.32
2022-11-22T01:48:31.989Z,5.78
2022-11-22T01:51:22.528Z,5.57
2022-11-22T01:53:49.707Z,5.85
2022-11-22T01:56:20.748Z,5.75
2022-11-22T01:58:53.287Z,6.28
2022-11-22T02:01:20.547Z,6.00
2022-11-22T02:03:49.833Z,6.55
2022-11-22T02:06:18.177Z,5.72
2022-11-22T02:09:12.649Z,6.30
2022-11-22T02:11:46.058Z,6.55
2022-11-22T02:14:13.363Z,6.57
2022-11-22T02:16:41.759Z,6.38
2022-11-22T02:19:15.866Z,6.57
2022-11-22T02:21:44.771Z,6.82
2022-11-22T02:24:21.745Z,6.57
2022-11-22T02:26:48.524Z,6.72
2022-11-22T02:29:15.914Z,7.03
2022-11-22T02:31:46.010Z,6.82
2022-11-22T02:34:13.784Z,7.53
2022-11-22T02:36:48.749Z,7.43
2022-11-22T02:39:19.795Z,7.88
2022-11-22T02:41:47.670Z,8.15
2022-11-22T02:44:15.478Z,8.00
2022-11-22T02:46:54.046Z,8.05
2022-11-22T02:49:23.028Z,8.45
2022-11-22T02:51:51.201Z,8.15
2022-11-22T02:54:18.446Z,8.63
2022-11-22T02:56:45.288Z,8.43
2022-11-22T02:59:12.046Z,8.70
2022-11-22T03:01:38.920Z,8.73
2022-11-22T03:04:05.725Z,8.60
2022-11-22T03:06:32.584Z,9.40
2022-11-22T03:08:59.342Z,9.50
2022-11-22T03:11:26.222Z,9.93
2022-11-22T03:13:52.983Z,9.32
2022-11-22T03:16:19.748Z,9.05
2022-11-22T03:18:46.510Z,9.15
2022-11-22T03:21:13.217Z,10.13
2022-11-22T03:23:39.993Z,9.25
2022-11-22T03:26:11.231Z,8.75
2022-11-22T03:28:38.167Z,9.75
2022-11-22T03:31:06.414Z,9.82
2022-11-22T03:33:34.183Z,9.13
2022-11-22T03:36:01.384Z,9.52
2022-11-22T03:38:28.156Z,9.20
2022-11-22T03:40:54.962Z,9.00
2022-11-22T03:43:22.308Z,9.15
2022-11-22T03:45:49.153Z,8.88
2022-11-22T03:48:15.894Z,8.80
2022-11-22T03:50:42.680Z,8.18
2022-11-22T03:53:09.460Z,8.55
2022-11-22T03:55:36.343Z,7.82
2022-11-22T03:58:03.873Z,8.07
2022-11-22T04:00:31.335Z,8.32
2022-11-22T04:02:58.260Z,8.32
2022-11-22T04:05:25.048Z,8.23
2022-11-22T04:07:57.156Z,9.73
2022-11-22T04:10:25.342Z,8.30
2022-11-22T04:12:56.223Z,8.05
2022-11-22T04:15:22.962Z,8.07
2022-11-22T04:17:49.745Z,8.80
2022-11-22T04:20:40.888Z,7.85
2022-11-22T04:23:09.895Z,8.43
2022-11-22T04:25:39.244Z,8.18
2022-11-22T04:28:07.831Z,8.40
2022-11-22T04:30:53.571Z,8.73
2022-11-22T04:33:20.597Z,9.45
2022-11-22T04:35:48.183Z,9.10
2022-11-22T04:38:16.050Z,8.40
2022-11-22T04:40:43.619Z,9.48
2022-11-22T04:43:37.551Z,8.55
2022-11-22T04:46:04.321Z,8.70
2022-11-22T04:48:31.092Z,9.30
2022-11-22T04:51:16.759Z,9.60
2022-11-22T04:53:44.470Z,8.45
2022-11-22T04:56:12.248Z,9.60
2022-11-22T04:58:39.332Z,9.63
2022-11-22T05:01:06.674Z,9.02
2022-11-22T05:03:33.567Z,9.65
2022-11-22T05:06:05.505Z,10.27
2022-11-22T05:08:32.426Z,10.38
2022-11-22T05:11:01.800Z,9.45
2022-11-22T05:13:41.651Z,10.77
2022-11-22T05:16:10.975Z,10.27
2022-11-22T05:18:37.966Z,10.85
2022-11-22T05:21:13.129Z,10.10
2022-11-22T05:23:55.454Z,10.07
2022-11-22T05:26:31.497Z,10.20
2022-11-22T05:31:27.565Z,9.88
2022-11-22T05:33:56.659Z,9.63
2022-11-22T05:36:24.373Z,10.68
2022-11-22T05:38:51.318Z,10.23
2022-11-22T05:41:18.938Z,10.45
2022-11-22T05:43:45.899Z,10.25
2022-11-22T05:46:23.836Z,11.27
2022-11-22T05:48:52.304Z,9.90
2022-11-22T05:51:21.523Z,9.95
2022-11-22T05:53:48.765Z,10.70
2022-11-22T05:56:17.950Z,10.55
2022-11-22T05:58:44.823Z,10.52
2022-11-22T06:01:18.236Z,10.60
2022-11-22T06:03:45.440Z,10.15
2022-11-22T06:06:12.725Z,9.70
2022-11-22T06:08:41.280Z,10.27
2022-11-22T06:11:15.977Z,10.60
2022-11-22T06:13:46.548Z,10.13
2022-11-22T06:16:14.411Z,10.07
2022-11-22T06:18:41.559Z,10.50
2022-11-22T06:21:12.067Z,10.13
2022-11-22T06:23:38.963Z,9.73
2022-11-22T06:26:08.484Z,10.73
2022-11-22T06:28:37.244Z,10.48
2022-11-22T06:31:05.682Z,10.77
2022-11-22T06:33:33.159Z,9.70
2022-11-22T06:36:07.739Z,11.43
2022-11-22T06:38:34.659Z,12.18
2022-11-22T06:41:06.598Z,13.35
2022-11-22T06:43:34.720Z,11.13
2022-11-22T06:46:04.002Z,11.48
2022-11-22T06:48:32.128Z,11.38
2022-11-22T06:51:03.716Z,13.05
2022-11-22T06:53:46.960Z,13.05
2022-11-22T06:56:16.761Z,12.32
2022-11-22T06:58:44.260Z,12.38
2022-11-22T07:01:16.999Z,11.15
2022-11-22T07:03:44.344Z,10.45
2022-11-22T07:06:12.972Z,11.27
2022-11-22T07:08:40.703Z,12.05
2022-11-22T07:11:10.393Z,10.98
2022-11-22T07:13:37.840Z,11.88
2022-11-22T07:16:07.033Z,11.05
2022-11-22T07:18:34.427Z,12.07
2022-11-22T07:21:12.148Z,10.85
2022-11-22T07:23:41.656Z,10.20
2022-11-22T07:26:08.605Z,10.80
2022-11-22T07:28:35.381Z,11.68
2022-11-22T07:31:04.482Z,10.95
2022-11-22T07:33:31.634Z,11.27
2022-11-22T07:36:13.316Z,10.70
2022-11-22T07:38:40.224Z,11.50
2022-11-22T07:41:08.211Z,11.38
2022-11-22T07:43:35.226Z,11.23
2022-11-22T07:46:19.244Z,10.73
2022-11-22T07:48:47.195Z,12.13
2022-11-22T07:51:13.972Z,10.32
2022-11-22T07:53:40.736Z,13.10
2022-11-22T07:56:08.130Z,11.32
2022-11-22T07:58:35.448Z,11.00
2022-11-22T08:01:13.684Z,11.30
2022-11-22T08:03:41.329Z,11.40
2022-11-22T08:06:09.787Z,10.55
2022-11-22T08:08:37.482Z,11.02
2022-11-22T08:11:05.280Z,11.45
2022-11-22T08:13:32.939Z,11.00
2022-11-22T08:16:18.456Z,11.65
2022-11-22T08:18:49.300Z,10.87
2022-11-22T08:21:17.758Z,11.75
2022-11-22T08:23:46.162Z,11.98
2022-11-22T08:26:15.611Z,15.25
2022-11-22T08:28:43.587Z,10.88
2022-11-22T08:31:13.638Z,11.25
2022-11-22T08:33:41.096Z,9.98
2022-11-22T08:36:08.528Z,11.63
2022-11-22T08:38:36.197Z,11.13
2022-11-22T08:41:04.199Z,10.77
2022-11-22T08:43:31.400Z,10.75
2022-11-22T08:45:59.695Z,10.65
2022-11-22T08:48:27.511Z,11.40
2022-11-22T08:50:57.960Z,10.82
2022-11-22T08:53:25.794Z,10.75
2022-11-22T08:55:53.257Z,11.18
2022-11-22T08:58:20.391Z,10.73
2022-11-22T09:00:47.167Z,10.73
2022-11-22T09:03:13.912Z,10.52
2022-11-22T09:08:29.031Z,10.93
2022-11-22T09:11:03.035Z,11.27
2022-11-22T09:13:30.452Z,10.68
2022-11-22T09:16:12.811Z,10.57
2022-11-22T09:18:39.630Z,10.73
2022-11-22T09:21:09.683Z,10.98
2022-11-22T09:23:36.599Z,11.77
2022-11-22T09:26:04.763Z,11.00
2022-11-22T09:28:31.823Z,11.90
2022-11-22T09:31:02.981Z,10.55
2022-11-22T09:33:31.172Z,11.05
2022-11-22T09:36:09.357Z,11.48
2022-11-22T09:38:37.341Z,11.73
2022-11-22T09:41:24.298Z,10.90
2022-11-22T09:44:28.761Z,11.57
2022-11-22T09:47:03.999Z,10.68
2022-11-22T09:49:31.174Z,10.95
2022-11-22T09:52:51.744Z,11.15
2022-11-22T09:55:29.823Z,10.93
2022-11-22T09:58:10.814Z,11.07
2022-11-22T10:00:37.871Z,11.35
2022-11-22T10:03:16.553Z,11.93
2022-11-22T10:05:51.990Z,11.75
2022-11-22T10:08:21.448Z,10.52
2022-11-22T10:10:53.169Z,11.93
2022-11-22T10:13:25.255Z,12.07
2022-11-22T10:16:09.998Z,11.07
2022-11-22T10:18:51.263Z,11.38
2022-11-22T10:21:19.703Z,10.60
2022-11-22T10:23:47.594Z,10.45
2022-11-22T10:26:27.396Z,10.75
2022-11-22T10:29:08.624Z,10.15
2022-11-22T10:31:55.666Z,10.52
2022-11-22T10:34:42.321Z,10.63
2022-11-22T10:37:24.619Z,10.50
2022-11-22T10:40:08.928Z,11.25
2022-11-22T10:43:02.273Z,11.57
2022-11-22T10:45:42.551Z,10.55
2022-11-22T10:48:18.193Z,10.63
2022-11-22T10:51:06.052Z,10.75
2022-11-22T10:53:58.854Z,10.77
2022-11-22T10:56:54.266Z,9.07
2022-11-22T10:59:38.713Z,11.63
2022-11-22T11:02:29.603Z,10.82
2022-11-22T11:04:57.663Z,11.15
2022-11-22T11:07:25.559Z,11.57
2022-11-22T11:10:22.275Z,11.05
2022-11-22T11:13:11.696Z,11.10
2022-11-22T11:15:43.781Z,11.25
2022-11-22T11:18:30.764Z,10.52
2022-11-22T11:20:57.579Z,11.13
2022-11-22T11:23:24.372Z,10.82
2022-11-22T11:25:52.470Z,12.05
2022-11-22T11:28:19.479Z,12.10
2022-11-22T11:31:18.529Z,11.80
2022-11-22T11:33:46.584Z,11.30
2022-11-22T11:36:22.137Z,10.98
2022-11-22T11:38:57.799Z,11.10
2022-11-22T11:41:38.861Z,10.63
2022-11-22T11:44:36.140Z,12.27
2022-11-22T11:47:04.415Z,11.23
2022-11-22T11:49:33.735Z,11.38
2022-11-22T11:52:22.041Z,10.80
2022-11-22T11:54:52.894Z,10.30
2022-11-22T11:57:28.759Z,10.13
2022-11-22T11:59:57.769Z,10.48
2022-11-22T12:02:41.541Z,10.45
2022-11-22T12:05:14.213Z,10.75
2022-11-22T12:07:44.957Z,10.18
2022-11-22T12:11:03.076Z,10.05
2022-11-22T12:14:04.606Z,10.25
2022-11-22T12:16:31.858Z,10.70
2022-11-22T12:19:39.477Z,10.63
2022-11-22T12:22:48.342Z,11.35
2022-11-22T12:25:32.870Z,10.20
2022-11-22T12:28:10.447Z,9.85
2022-11-22T12:30:39.456Z,10.90
2022-11-22T12:33:10.905Z,12.90
2022-11-22T12:35:43.874Z,12.27
2022-11-22T12:38:25.340Z,12.13
2022-11-22T12:40:56.403Z,12.15
2022-11-22T12:43:43.819Z,12.10
2022-11-22T12:48:22.536Z,11.73
2022-11-22T12:49:22.020Z,11.63
2022-11-22T12:51:59.675Z,11.15
2022-11-22T12:55:00.717Z,11.43
2022-11-22T12:57:50.129Z,10.63
2022-11-22T13:00:19.182Z,10.95
2022-11-22T13:03:03.955Z,11.48
2022-11-22T13:05:43.704Z,10.98
2022-11-22T13:08:16.536Z,11.45
2022-11-22T13:11:15.747Z,11.52
2022-11-22T13:13:55.798Z,11.98
2022-11-22T13:16:22.555Z,10.93
2022-11-22T13:18:56.708Z,11.25
2022-11-22T13:21:57.475Z,11.25
2022-11-22T13:24:42.503Z,11.68
2022-11-22T13:27:30.605Z,12.65
2022-11-22T13:30:00.971Z,11.93
2022-11-22T13:32:32.651Z,11.93
2022-11-22T13:35:01.305Z,12.40
2022-11-22T13:37:39.385Z,11.98
2022-11-22T13:40:50.645Z,13.02
2022-11-22T13:43:22.230Z,12.63
2022-11-22T13:45:53.458Z,11.77
2022-11-22T13:48:41.733Z,13.07
2022-11-22T13:51:19.371Z,12.18
2022-11-22T13:53:47.996Z,11.18
2022-11-22T13:56:20.741Z,13.68
2022-11-22T13:59:20.081Z,12.63
2022-11-22T14:01:46.849Z,11.82
2022-11-22T14:04:16.569Z,12.68
2022-11-22T14:06:48.357Z,12.27
2022-11-22T14:09:36.930Z,11.32
2022-11-22T14:12:24.836Z,10.77
2022-11-22T14:14:54.361Z,12.25
2022-11-22T14:17:26.996Z,12.20
2022-11-22T14:20:01.089Z,11.05
2022-11-22T14:22:49.535Z,11.57
2022-11-22T14:25:29.061Z,11.38
2022-11-22T14:28:01.640Z,15.15
2022-11-22T14:30:43.849Z,11.85
2022-11-22T14:33:19.259Z,11.43
2022-11-22T14:36:07.664Z,11.52
2022-11-22T14:38:36.168Z,11.02
2022-11-22T14:41:28.030Z,13.25
2022-11-22T14:44:09.390Z,11.65
2022-11-22T14:46:56.772Z,11.95
2022-11-22T14:49:56.104Z,11.75
2022-11-22T14:52:29.752Z,13.02
2022-11-22T14:55:02.633Z,12.60
2022-11-22T14:57:32.616Z,11.55
2022-11-22T15:00:20.798Z,11.90
2022-11-22T15:03:18.524Z,11.30
2022-11-22T15:09:11.955Z,12.13
2022-11-22T15:09:18.388Z,12.77
2022-11-22T15:11:52.463Z,12.13
2022-11-22T15:14:54.719Z,12.68
2022-11-22T15:57:34.508Z,13.27
2022-11-22T16:00:01.851Z,14.38
2022-11-22T16:02:30.871Z,13.90
2022-11-22T16:06:04.368Z,13.45
2022-11-22T16:07:50.463Z,15.30
2022-11-22T16:10:37.752Z,15.02
2022-11-22T16:13:22.060Z,13.88
2022-11-22T16:16:18.836Z,13.68
2022-11-22T16:18:48.214Z,14.43
2022-11-22T16:21:22.099Z,14.27
2022-11-22T16:24:11.523Z,15.05
2022-11-22T16:26:39.889Z,14.60
2022-11-22T16:29:32.352Z,14.68
2022-11-22T16:32:05.479Z,13.77
2022-11-22T16:34:32.367Z,13.75
2022-11-22T16:36:59.277Z,14.95
2022-11-22T16:39:26.148Z,13.98
2022-11-22T16:41:53.083Z,14.50
2022-11-22T16:44:21.305Z,14.80
2022-11-22T16:46:48.056Z,14.80
2022-11-22T16:49:18.802Z,15.40
2022-11-22T16:51:46.988Z,14.38
2022-11-22T16:54:17.051Z,14.25
2022-11-22T16:56:44.303Z,15.43
2022-11-22T16:59:12.863Z,15.40
2022-11-22T17:01:42.131Z,15.50
2022-11-22T17:04:21.590Z,16.27
2022-11-22T17:06:48.386Z,16.77
2022-11-22T17:09:15.200Z,17.52
2022-11-22T17:11:43.227Z,16.20
2022-11-22T17:14:15.494Z,16.77
2022-11-22T17:16:42.703Z,15.88
2022-11-22T17:19:30.214Z,16.40
2022-11-22T17:21:56.659Z,16.75
2022-11-22T17:24:23.911Z,16.20
2022-11-22T17:26:50.669Z,15.82
2022-11-22T17:32:04.606Z,16.95
2022-11-22T17:34:31.694Z,16.92
2022-11-22T17:36:58.599Z,17.17
2022-11-22T17:39:25.331Z,19.73
2022-11-22T17:41:52.083Z,18.50
2022-11-22T17:44:18.862Z,18.30
2022-11-22T17:46:47.150Z,19.25
2022-11-22T17:49:16.395Z,20.20
2022-11-22T17:51:43.670Z,19.17
2022-11-22T17:54:10.380Z,17.95
2022-11-22T17:56:37.684Z,18.67
2022-11-22T17:59:04.978Z,17.73
2022-11-22T18:01:32.094Z,17.92
2022-11-22T18:03:59.023Z,17.85
2022-11-22T18:06:26.503Z,16.52
2022-11-22T18:08:53.394Z,19.75
2022-11-22T18:11:20.284Z,18.08
2022-11-22T18:13:47.270Z,18.33
2022-11-22T18:16:15.734Z,18.08
2022-11-22T18:18:58.661Z,17.80
2022-11-22T18:21:28.950Z,17.33
2022-11-22T18:23:57.659Z,17.38
2022-11-22T18:26:38.688Z,17.55
2022-11-22T18:31:54.326Z,18.88
2022-11-22T18:34:22.775Z,18.30
2022-11-22T18:36:55.238Z,20.50
2022-11-22T18:39:24.851Z,18.38
2022-11-22T18:41:51.641Z,19.52
2022-11-22T18:44:18.558Z,19.95
2022-11-22T18:46:45.381Z,18.65
2022-11-22T18:49:12.175Z,18.98
2022-11-22T18:51:38.964Z,20.55
2022-11-22T18:54:05.941Z,19.63
2022-11-22T18:56:37.782Z,20.00
2022-11-22T18:59:06.280Z,19.48
2022-11-22T19:01:34.712Z,19.20
2022-11-22T19:04:02.923Z,19.55
2022-11-22T19:06:30.347Z,18.33
2022-11-22T19:08:57.470Z,19.75
2022-11-22T19:11:24.461Z,20.17
2022-11-22T19:13:51.492Z,19.92
2022-11-22T19:16:21.920Z,20.75
2022-11-22T19:18:49.978Z,19.65
2022-11-22T19:21:22.495Z,24.45
2022-11-22T19:23:50.146Z,19.85
2022-11-22T19:26:20.603Z,19.42
2022-11-22T19:28:48.712Z,19.13
2022-11-22T19:31:18.264Z,19.67
2022-11-22T19:33:45.746Z,18.05
2022-11-22T19:36:18.560Z,17.60
2022-11-22T19:38:46.353Z,18.30
2022-11-22T19:41:21.661Z,17.55
2022-11-22T19:43:49.876Z,17.58
2022-11-22T19:46:16.894Z,17.38
2022-11-22T19:48:47.221Z,17.73
2022-11-22T19:51:15.567Z,15.75
2022-11-22T19:53:42.840Z,15.90
2022-11-22T19:56:13.883Z,15.18
2022-11-22T19:58:41.176Z,17.88
2022-11-22T20:01:10.559Z,16.75
2022-11-22T20:03:39.158Z,16.40
2022-11-22T20:06:08.513Z,16.10
2022-11-22T20:08:35.734Z,16.10
2022-11-22T20:11:04.608Z,16.98
2022-11-22T20:13:38.340Z,16.30
2022-11-22T20:16:07.595Z,17.08
2022-11-22T20:18:34.674Z,17.15
2022-11-22T20:21:02.602Z,17.05
2022-11-22T20:23:30.091Z,17.33
2022-11-22T20:26:03.738Z,16.60
2022-11-22T20:28:30.975Z,17.27
2022-11-22T20:31:08.793Z,17.90
2022-11-22T20:33:36.876Z,17.80
2022-11-22T20:36:09.167Z,17.33
2022-11-22T20:38:38.207Z,17.45
2022-11-22T20:41:06.311Z,19.77
2022-11-22T20:43:34.483Z,17.83
2022-11-22T20:46:25.361Z,17.67
2022-11-22T20:48:53.222Z,18.13
2022-11-22T20:51:25.678Z,18.30
2022-11-22T20:53:52.986Z,16.77
2022-11-22T20:56:20.482Z,16.45
2022-11-22T20:58:47.442Z,16.65
2022-11-22T21:01:17.135Z,16.10
2022-11-22T21:03:44.003Z,17.25
2022-11-22T21:06:15.350Z,15.35
2022-11-22T21:08:42.118Z,16.27
2022-11-22T21:11:26.743Z,16.77
2022-11-22T21:13:54.058Z,15.90
2022-11-22T21:16:24.645Z,15.50
2022-11-22T21:18:52.068Z,14.88
2022-11-22T21:21:22.787Z,15.23
2022-11-22T21:23:51.229Z,15.32
2022-11-22T21:26:18.750Z,15.25
2022-11-22T21:28:45.504Z,16.15
2022-11-22T21:31:12.252Z,15.93
2022-11-22T21:33:39.261Z,16.05
2022-11-22T21:36:07.103Z,16.63
2022-11-22T21:38:38.418Z,15.68
2022-11-22T21:41:32.315Z,15.77
2022-11-22T21:43:56.932Z,16.55
2022-11-22T21:46:25.247Z,15.73
2022-11-22T21:48:52.191Z,16.30
2022-11-22T21:51:19.017Z,15.55
2022-11-22T21:53:45.892Z,15.63
2022-11-22T21:56:12.621Z,16.27
2022-11-22T21:58:39.430Z,15.52
2022-11-22T22:01:13.644Z,15.38
2022-11-22T22:03:41.193Z,16.45
2022-11-22T22:06:08.040Z,15.77
2022-11-22T22:08:35.269Z,15.70
2022-11-22T22:11:02.479Z,15.85
2022-11-22T22:13:30.779Z,15.85
2022-11-22T22:15:59.676Z,15.45
2022-11-22T22:18:37.032Z,14.63
2022-11-22T22:21:06.427Z,14.70
2022-11-22T22:23:38.905Z,13.98
2022-11-22T22:26:08.457Z,13.15
2022-11-22T22:28:36.568Z,12.90
2022-11-22T22:31:04.717Z,11.82
2022-11-22T22:33:31.758Z,11.48
2022-11-22T22:35:59.445Z,12.48
2022-11-22T22:38:26.368Z,12.80
2022-11-22T22:40:57.954Z,13.10
2022-11-22T22:43:25.455Z,11.80
2022-11-22T22:45:52.397Z,12.05
2022-11-22T22:48:19.422Z,11.82
2022-11-22T22:50:46.234Z,11.85
2022-11-22T22:53:13.465Z,12.05
2022-11-22T22:55:40.363Z,10.75
2022-11-22T22:58:11.605Z,12.18
2022-11-22T23:00:38.956Z,11.27
2022-11-22T23:03:05.709Z,11.60
2022-11-22T23:05:32.490Z,12.07
2022-11-22T23:07:59.338Z,12.30
2022-11-22T23:10:26.157Z,12.48
2022-11-22T23:12:52.923Z,12.73
2022-11-22T23:15:33.205Z,12.55
2022-11-22T23:18:06.458Z,12.05
2022-11-22T23:20:33.669Z,11.85
2022-11-22T23:23:00.385Z,10.98
2022-11-22T23:25:27.151Z,12.43
2022-11-22T23:27:53.950Z,11.35
2022-11-22T23:30:20.654Z,12.10
2022-11-22T23:32:47.376Z,12.02
2022-11-22T23:35:14.166Z,11.73
2022-11-22T23:37:40.868Z,11.05
2022-11-22T23:40:08.119Z,11.73
2022-11-22T23:42:34.909Z,9.75
2022-11-22T23:45:01.659Z,11.70
2022-11-22T23:47:28.405Z,11.20
2022-11-22T23:49:55.157Z,11.23
2022-11-22T23:52:21.884Z,11.02
2022-11-22T23:54:48.656Z,10.27
2022-11-22T23:57:15.415Z,11.02
2022-11-22T23:59:42.116Z,11.63
